sensor_id;sensor_type;location;lat;lon;timestamp;temperature;humidity
9951;DHT22;24074;49.254;6.702;2023-07-20T00:00:06;14.50;99.90
9951;DHT22;24074;49.254;6.702;2023-07-20T00:02:32;14.30;99.90
9951;DHT22;24074;49.254;6.702;2023-07-20T00:04:57;14.20;99.90
9951;DHT22;24074;49.254;6.702;2023-07-20T00:07:23;14.10;99.90
9951;DHT22;24074;49.254;6.702;2023-07-20T00:09:50;14.20;99.90
9951;DHT22;24074;49.254;6.702;2023-07-20T00:12:15;14.20;99.90
9951;DHT22;24074;49.254;6.702;2023-07-20T00:14:41;14.20;99.90
9951;DHT22;24074;49.254;6.702;2023-07-20T00:17:06;14.20;99.90
9951;DHT22;24074;49.254;6.702;2023-07-20T00:19:32;14.10;99.90
9951;DHT22;24074;49.254;6.702;2023-07-20T00:21:58;14.00;99.90
9951;DHT22;24074;49.254;6.702;2023-07-20T00:24:23;13.90;99.90
9951;DHT22;24074;49.254;6.702;2023-07-20T00:26:49;14.00;99.90
9951;DHT22;24074;49.254;6.702;2023-07-20T00:29:14;14.00;99.90
9951;DHT22;24074;49.254;6.702;2023-07-20T00:31:40;14.00;99.90
9951;DHT22;24074;49.254;6.702;2023-07-20T00:34:06;14.10;99.90
9951;DHT22;24074;49.254;6.702;2023-07-20T00:36:32;13.90;99.90
9951;DHT22;24074;49.254;6.702;2023-07-20T00:38:58;13.90;99.90
9951;DHT22;24074;49.254;6.702;2023-07-20T00:41:23;13.80;99.90
9951;DHT22;24074;49.254;6.702;2023-07-20T00:43:49;13.70;99.90
9951;DHT22;24074;49.254;6.702;2023-07-20T00:46:16;13.70;99.90
9951;DHT22;24074;49.254;6.702;2023-07-20T00:48:42;13.70;99.90
9951;DHT22;24074;49.254;6.702;2023-07-20T00:51:07;13.70;99.90
9951;DHT22;24074;49.254;6.702;2023-07-20T00:53:33;13.60;99.90
9951;DHT22;24074;49.254;6.702;2023-07-20T00:55:59;13.50;99.90
9951;DHT22;24074;49.254;6.702;2023-07-20T00:58:25;13.60;99.90
9951;DHT22;24074;49.254;6.702;2023-07-20T01:00:51;13.60;99.90
9951;DHT22;24074;49.254;6.702;2023-07-20T01:03:16;13.60;99.90
9951;DHT22;24074;49.254;6.702;2023-07-20T01:05:51;13.60;99.90
9951;DHT22;24074;49.254;6.702;2023-07-20T01:08:33;13.50;99.90
9951;DHT22;24074;49.254;6.702;2023-07-20T01:11:29;13.50;99.90
9951;DHT22;24074;49.254;6.702;2023-07-20T01:13:56;13.40;99.90
9951;DHT22;24074;49.254;6.702;2023-07-20T01:16:22;13.30;99.90
9951;DHT22;24074;49.254;6.702;2023-07-20T01:18:48;13.40;99.90
9951;DHT22;24074;49.254;6.702;2023-07-20T01:21:20;13.50;99.90
9951;DHT22;24074;49.254;6.702;2023-07-20T01:24:07;13.40;99.90
9951;DHT22;24074;49.254;6.702;2023-07-20T01:29:43;13.60;99.90
9951;DHT22;24074;49.254;6.702;2023-07-20T01:32:12;13.50;99.90
9951;DHT22;24074;49.254;6.702;2023-07-20T01:34:41;13.40;99.90
9951;DHT22;24074;49.254;6.702;2023-07-20T01:37:07;13.40;99.90
9951;DHT22;24074;49.254;6.702;2023-07-20T01:39:33;13.50;99.90
9951;DHT22;24074;49.254;6.702;2023-07-20T01:42:00;13.40;99.90
9951;DHT22;24074;49.254;6.702;2023-07-20T01:44:26;13.40;99.90
9951;DHT22;24074;49.254;6.702;2023-07-20T01:46:52;13.40;99.90
9951;DHT22;24074;49.254;6.702;2023-07-20T01:49:18;13.50;99.90
9951;DHT22;24074;49.254;6.702;2023-07-20T01:51:43;13.70;99.90
9951;DHT22;24074;49.254;6.702;2023-07-20T01:54:09;13.70;99.90
9951;DHT22;24074;49.254;6.702;2023-07-20T01:56:34;13.60;99.90
9951;DHT22;24074;49.254;6.702;2023-07-20T01:59:00;13.50;99.90
9951;DHT22;24074;49.254;6.702;2023-07-20T02:01:25;13.50;99.90
9951;DHT22;24074;49.254;6.702;2023-07-20T02:03:53;13.40;99.90
9951;DHT22;24074;49.254;6.702;2023-07-20T02:06:19;13.30;99.90
9951;DHT22;24074;49.254;6.702;2023-07-20T02:08:45;13.30;99.90
9951;DHT22;24074;49.254;6.702;2023-07-20T02:11:11;13.20;99.90
9951;DHT22;24074;49.254;6.702;2023-07-20T02:13:36;13.10;99.90
9951;DHT22;24074;49.254;6.702;2023-07-20T02:16:02;13.00;99.90
9951;DHT22;24074;49.254;6.702;2023-07-20T02:18:27;13.00;99.90
9951;DHT22;24074;49.254;6.702;2023-07-20T02:20:53;12.90;99.90
9951;DHT22;24074;49.254;6.702;2023-07-20T02:23:19;12.90;99.90
9951;DHT22;24074;49.254;6.702;2023-07-20T02:25:45;12.80;99.90
9951;DHT22;24074;49.254;6.702;2023-07-20T02:28:13;12.80;99.90
9951;DHT22;24074;49.254;6.702;2023-07-20T02:30:39;13.00;99.90
9951;DHT22;24074;49.254;6.702;2023-07-20T02:33:05;13.20;99.90
9951;DHT22;24074;49.254;6.702;2023-07-20T02:35:32;13.20;99.90
9951;DHT22;24074;49.254;6.702;2023-07-20T02:37:57;13.10;99.90
9951;DHT22;24074;49.254;6.702;2023-07-20T02:40:23;13.10;99.90
9951;DHT22;24074;49.254;6.702;2023-07-20T02:42:49;13.00;99.90
9951;DHT22;24074;49.254;6.702;2023-07-20T02:45:14;12.80;99.90
9951;DHT22;24074;49.254;6.702;2023-07-20T02:47:40;12.90;99.90
9951;DHT22;24074;49.254;6.702;2023-07-20T02:50:09;12.90;99.90
9951;DHT22;24074;49.254;6.702;2023-07-20T02:52:34;12.80;99.90
9951;DHT22;24074;49.254;6.702;2023-07-20T02:55:00;12.80;99.90
9951;DHT22;24074;49.254;6.702;2023-07-20T02:57:26;12.60;99.90
9951;DHT22;24074;49.254;6.702;2023-07-20T02:59:52;12.70;99.90
9951;DHT22;24074;49.254;6.702;2023-07-20T03:02:18;12.70;99.90
9951;DHT22;24074;49.254;6.702;2023-07-20T03:04:43;12.70;99.90
9951;DHT22;24074;49.254;6.702;2023-07-20T03:07:09;12.60;99.90
9951;DHT22;24074;49.254;6.702;2023-07-20T03:09:35;12.60;99.90
9951;DHT22;24074;49.254;6.702;2023-07-20T03:12:00;12.60;99.90
9951;DHT22;24074;49.254;6.702;2023-07-20T03:14:26;12.30;99.90
9951;DHT22;24074;49.254;6.702;2023-07-20T03:16:52;12.30;99.90
9951;DHT22;24074;49.254;6.702;2023-07-20T03:19:17;12.20;99.90
9951;DHT22;24074;49.254;6.702;2023-07-20T03:21:43;12.10;99.90
9951;DHT22;24074;49.254;6.702;2023-07-20T03:24:09;12.10;99.90
9951;DHT22;24074;49.254;6.702;2023-07-20T03:26:35;12.10;99.90
9951;DHT22;24074;49.254;6.702;2023-07-20T03:29:01;12.10;99.90
9951;DHT22;24074;49.254;6.702;2023-07-20T03:31:27;12.10;99.90
9951;DHT22;24074;49.254;6.702;2023-07-20T03:33:52;12.30;99.90
9951;DHT22;24074;49.254;6.702;2023-07-20T03:36:18;12.30;99.90
9951;DHT22;24074;49.254;6.702;2023-07-20T03:38:43;12.10;99.90
9951;DHT22;24074;49.254;6.702;2023-07-20T03:41:09;12.10;99.90
9951;DHT22;24074;49.254;6.702;2023-07-20T03:43:37;12.00;99.90
9951;DHT22;24074;49.254;6.702;2023-07-20T03:46:03;11.90;99.90
9951;DHT22;24074;49.254;6.702;2023-07-20T03:48:32;11.90;99.90
9951;DHT22;24074;49.254;6.702;2023-07-20T03:50:58;11.90;99.90
9951;DHT22;24074;49.254;6.702;2023-07-20T03:53:25;11.90;99.90
9951;DHT22;24074;49.254;6.702;2023-07-20T03:55:52;12.00;99.90
9951;DHT22;24074;49.254;6.702;2023-07-20T03:58:19;12.00;99.90
9951;DHT22;24074;49.254;6.702;2023-07-20T04:00:51;12.00;99.90
9951;DHT22;24074;49.254;6.702;2023-07-20T04:03:18;12.10;99.90
9951;DHT22;24074;49.254;6.702;2023-07-20T04:05:44;12.00;99.90
9951;DHT22;24074;49.254;6.702;2023-07-20T04:08:10;12.10;99.90
9951;DHT22;24074;49.254;6.702;2023-07-20T04:10:36;12.00;99.90
9951;DHT22;24074;49.254;6.702;2023-07-20T04:13:03;12.00;99.90
9951;DHT22;24074;49.254;6.702;2023-07-20T04:15:29;12.10;99.90
9951;DHT22;24074;49.254;6.702;2023-07-20T04:17:55;12.10;99.90
9951;DHT22;24074;49.254;6.702;2023-07-20T04:20:22;12.20;99.90
9951;DHT22;24074;49.254;6.702;2023-07-20T04:22:47;12.30;99.90
9951;DHT22;24074;49.254;6.702;2023-07-20T04:25:13;12.40;99.90
9951;DHT22;24074;49.254;6.702;2023-07-20T04:27:39;12.50;99.90
9951;DHT22;24074;49.254;6.702;2023-07-20T04:30:07;12.50;99.90
9951;DHT22;24074;49.254;6.702;2023-07-20T04:32:33;12.60;99.90
9951;DHT22;24074;49.254;6.702;2023-07-20T04:34:59;12.70;99.90
9951;DHT22;24074;49.254;6.702;2023-07-20T04:37:25;12.70;99.90
9951;DHT22;24074;49.254;6.702;2023-07-20T04:39:50;12.70;99.90
9951;DHT22;24074;49.254;6.702;2023-07-20T04:42:16;12.60;99.90
9951;DHT22;24074;49.254;6.702;2023-07-20T04:44:41;12.70;99.90
9951;DHT22;24074;49.254;6.702;2023-07-20T04:47:07;12.60;99.90
9951;DHT22;24074;49.254;6.702;2023-07-20T04:49:34;12.70;99.90
9951;DHT22;24074;49.254;6.702;2023-07-20T04:51:59;12.80;99.90
9951;DHT22;24074;49.254;6.702;2023-07-20T04:54:25;12.80;99.90
9951;DHT22;24074;49.254;6.702;2023-07-20T04:56:52;13.20;99.90
9951;DHT22;24074;49.254;6.702;2023-07-20T04:59:18;13.40;99.90
9951;DHT22;24074;49.254;6.702;2023-07-20T05:01:44;13.50;99.90
9951;DHT22;24074;49.254;6.702;2023-07-20T05:04:09;13.50;99.90
9951;DHT22;24074;49.254;6.702;2023-07-20T05:06:35;13.60;99.90
9951;DHT22;24074;49.254;6.702;2023-07-20T05:09:00;13.60;99.90
9951;DHT22;24074;49.254;6.702;2023-07-20T05:11:26;13.60;99.90
9951;DHT22;24074;49.254;6.702;2023-07-20T05:13:51;13.70;99.90
9951;DHT22;24074;49.254;6.702;2023-07-20T05:16:17;13.90;99.90
9951;DHT22;24074;49.254;6.702;2023-07-20T05:18:42;14.10;99.90
9951;DHT22;24074;49.254;6.702;2023-07-20T05:21:08;14.30;99.90
9951;DHT22;24074;49.254;6.702;2023-07-20T05:23:34;14.30;99.90
9951;DHT22;24074;49.254;6.702;2023-07-20T05:25:59;14.50;99.90
9951;DHT22;24074;49.254;6.702;2023-07-20T05:28:26;14.70;99.90
9951;DHT22;24074;49.254;6.702;2023-07-20T05:30:52;14.80;99.90
9951;DHT22;24074;49.254;6.702;2023-07-20T05:33:19;14.90;99.90
9951;DHT22;24074;49.254;6.702;2023-07-20T05:35:45;15.00;99.90
9951;DHT22;24074;49.254;6.702;2023-07-20T05:38:10;15.20;99.90
9951;DHT22;24074;49.254;6.702;2023-07-20T05:40:44;15.40;99.90
9951;DHT22;24074;49.254;6.702;2023-07-20T05:43:10;15.50;99.90
9951;DHT22;24074;49.254;6.702;2023-07-20T05:45:36;15.80;99.90
9951;DHT22;24074;49.254;6.702;2023-07-20T05:48:02;16.50;99.90
9951;DHT22;24074;49.254;6.702;2023-07-20T05:50:27;17.80;99.90
9951;DHT22;24074;49.254;6.702;2023-07-20T05:52:54;19.40;99.90
9951;DHT22;24074;49.254;6.702;2023-07-20T05:55:20;21.20;99.90
9951;DHT22;24074;49.254;6.702;2023-07-20T05:57:45;22.80;99.90
9951;DHT22;24074;49.254;6.702;2023-07-20T06:00:12;24.00;99.90
9951;DHT22;24074;49.254;6.702;2023-07-20T06:02:38;25.30;99.90
9951;DHT22;24074;49.254;6.702;2023-07-20T06:05:06;25.80;99.90
9951;DHT22;24074;49.254;6.702;2023-07-20T06:07:35;26.60;99.90
9951;DHT22;24074;49.254;6.702;2023-07-20T06:10:01;27.20;99.90
9951;DHT22;24074;49.254;6.702;2023-07-20T06:12:27;27.50;99.90
9951;DHT22;24074;49.254;6.702;2023-07-20T06:14:54;27.80;99.90
9951;DHT22;24074;49.254;6.702;2023-07-20T06:17:20;27.60;99.00
9951;DHT22;24074;49.254;6.702;2023-07-20T06:19:46;27.50;98.70
9951;DHT22;24074;49.254;6.702;2023-07-20T06:22:11;27.80;98.30
9951;DHT22;24074;49.254;6.702;2023-07-20T06:24:37;28.10;96.80
9951;DHT22;24074;49.254;6.702;2023-07-20T06:27:03;28.00;96.60
9951;DHT22;24074;49.254;6.702;2023-07-20T06:29:30;28.00;96.80
9951;DHT22;24074;49.254;6.702;2023-07-20T06:31:56;28.90;95.90
9951;DHT22;24074;49.254;6.702;2023-07-20T06:34:21;29.40;93.10
9951;DHT22;24074;49.254;6.702;2023-07-20T06:36:47;28.90;92.60
9951;DHT22;24074;49.254;6.702;2023-07-20T06:39:13;29.10;93.00
9951;DHT22;24074;49.254;6.702;2023-07-20T06:41:39;29.50;90.90
9951;DHT22;24074;49.254;6.702;2023-07-20T06:44:05;29.00;90.90
9951;DHT22;24074;49.254;6.702;2023-07-20T06:46:30;28.70;90.80
9951;DHT22;24074;49.254;6.702;2023-07-20T06:48:56;29.30;91.00
9951;DHT22;24074;49.254;6.702;2023-07-20T06:51:22;30.00;88.50
9951;DHT22;24074;49.254;6.702;2023-07-20T06:53:47;29.60;89.20
9951;DHT22;24074;49.254;6.702;2023-07-20T06:56:14;29.90;87.90
9951;DHT22;24074;49.254;6.702;2023-07-20T06:58:39;29.80;87.70
9951;DHT22;24074;49.254;6.702;2023-07-20T07:01:06;30.20;85.50
9951;DHT22;24074;49.254;6.702;2023-07-20T07:03:32;30.40;82.40
9951;DHT22;24074;49.254;6.702;2023-07-20T07:05:58;30.50;83.40
9951;DHT22;24074;49.254;6.702;2023-07-20T07:08:23;30.40;83.20
9951;DHT22;24074;49.254;6.702;2023-07-20T07:10:49;30.70;81.00
9951;DHT22;24074;49.254;6.702;2023-07-20T07:13:15;31.10;77.90
9951;DHT22;24074;49.254;6.702;2023-07-20T07:15:41;30.90;78.30
9951;DHT22;24074;49.254;6.702;2023-07-20T07:18:06;32.10;75.20
9951;DHT22;24074;49.254;6.702;2023-07-20T07:20:32;31.60;74.00
9951;DHT22;24074;49.254;6.702;2023-07-20T07:22:57;31.60;73.20
9951;DHT22;24074;49.254;6.702;2023-07-20T07:25:23;29.60;79.90
9951;DHT22;24074;49.254;6.702;2023-07-20T07:27:48;29.70;81.10
9951;DHT22;24074;49.254;6.702;2023-07-20T07:30:14;30.20;80.50
9951;DHT22;24074;49.254;6.702;2023-07-20T07:32:40;30.50;76.20
9951;DHT22;24074;49.254;6.702;2023-07-20T07:35:07;31.70;73.90
9951;DHT22;24074;49.254;6.702;2023-07-20T07:37:32;31.70;74.30
9951;DHT22;24074;49.254;6.702;2023-07-20T07:39:58;32.10;72.10
9951;DHT22;24074;49.254;6.702;2023-07-20T07:42:23;33.00;69.50
9951;DHT22;24074;49.254;6.702;2023-07-20T07:44:49;33.00;68.30
9951;DHT22;24074;49.254;6.702;2023-07-20T07:47:14;32.80;67.90
9951;DHT22;24074;49.254;6.702;2023-07-20T07:49:40;32.80;67.90
9951;DHT22;24074;49.254;6.702;2023-07-20T07:52:06;31.50;69.10
9951;DHT22;24074;49.254;6.702;2023-07-20T07:54:31;31.30;71.90
9951;DHT22;24074;49.254;6.702;2023-07-20T07:56:57;31.90;70.70
9951;DHT22;24074;49.254;6.702;2023-07-20T07:59:23;32.10;70.40
9951;DHT22;24074;49.254;6.702;2023-07-20T08:01:48;32.60;67.60
9951;DHT22;24074;49.254;6.702;2023-07-20T08:04:14;31.60;69.30
9951;DHT22;24074;49.254;6.702;2023-07-20T08:06:39;31.90;69.40
9951;DHT22;24074;49.254;6.702;2023-07-20T08:09:05;31.80;68.40
9951;DHT22;24074;49.254;6.702;2023-07-20T08:11:31;31.90;69.00
9951;DHT22;24074;49.254;6.702;2023-07-20T08:13:59;33.00;66.70
9951;DHT22;24074;49.254;6.702;2023-07-20T08:16:25;33.80;65.10
9951;DHT22;24074;49.254;6.702;2023-07-20T08:18:50;33.80;62.10
9951;DHT22;24074;49.254;6.702;2023-07-20T08:21:16;33.80;60.70
9951;DHT22;24074;49.254;6.702;2023-07-20T08:23:42;31.20;66.00
9951;DHT22;24074;49.254;6.702;2023-07-20T08:26:07;31.20;67.80
9951;DHT22;24074;49.254;6.702;2023-07-20T08:28:34;30.40;68.30
9951;DHT22;24074;49.254;6.702;2023-07-20T08:30:59;29.00;71.80
9951;DHT22;24074;49.254;6.702;2023-07-20T08:33:25;29.40;75.20
9951;DHT22;24074;49.254;6.702;2023-07-20T08:35:51;31.20;72.10
9951;DHT22;24074;49.254;6.702;2023-07-20T08:38:16;32.40;66.50
9951;DHT22;24074;49.254;6.702;2023-07-20T08:40:45;31.70;66.20
9951;DHT22;24074;49.254;6.702;2023-07-20T08:43:12;30.60;70.80
9951;DHT22;24074;49.254;6.702;2023-07-20T08:45:39;31.70;68.60
9951;DHT22;24074;49.254;6.702;2023-07-20T08:48:08;34.10;64.70
9951;DHT22;24074;49.254;6.702;2023-07-20T08:50:34;34.50;60.60
9951;DHT22;24074;49.254;6.702;2023-07-20T08:53:01;34.30;60.90
9951;DHT22;24074;49.254;6.702;2023-07-20T08:55:27;32.70;60.90
9951;DHT22;24074;49.254;6.702;2023-07-20T08:57:58;31.90;63.60
9951;DHT22;24074;49.254;6.702;2023-07-20T09:00:25;30.00;67.20
9951;DHT22;24074;49.254;6.702;2023-07-20T09:02:52;30.80;69.00
9951;DHT22;24074;49.254;6.702;2023-07-20T09:05:18;32.00;65.90
9951;DHT22;24074;49.254;6.702;2023-07-20T09:07:44;33.10;64.30
9951;DHT22;24074;49.254;6.702;2023-07-20T09:10:10;33.80;61.70
9951;DHT22;24074;49.254;6.702;2023-07-20T09:12:40;34.00;59.30
9951;DHT22;24074;49.254;6.702;2023-07-20T09:15:07;34.00;59.00
9951;DHT22;24074;49.254;6.702;2023-07-20T09:17:33;35.90;56.30
9951;DHT22;24074;49.254;6.702;2023-07-20T09:20:02;35.80;55.40
9951;DHT22;24074;49.254;6.702;2023-07-20T09:22:31;32.90;58.10
9951;DHT22;24074;49.254;6.702;2023-07-20T09:24:58;31.60;60.50
9951;DHT22;24074;49.254;6.702;2023-07-20T09:27:45;29.50;64.20
9951;DHT22;24074;49.254;6.702;2023-07-20T09:30:12;28.60;66.90
9951;DHT22;24074;49.254;6.702;2023-07-20T09:35:07;29.00;70.80
9951;DHT22;24074;49.254;6.702;2023-07-20T09:37:37;31.00;66.30
9951;DHT22;24074;49.254;6.702;2023-07-20T09:40:06;33.00;62.40
9951;DHT22;24074;49.254;6.702;2023-07-20T09:42:32;34.90;57.60
9951;DHT22;24074;49.254;6.702;2023-07-20T09:44:57;35.40;55.70
9951;DHT22;24074;49.254;6.702;2023-07-20T09:47:24;35.20;55.20
9951;DHT22;24074;49.254;6.702;2023-07-20T09:49:49;36.10;54.20
9951;DHT22;24074;49.254;6.702;2023-07-20T09:52:20;37.40;52.70
9951;DHT22;24074;49.254;6.702;2023-07-20T09:54:46;36.00;51.50
9951;DHT22;24074;49.254;6.702;2023-07-20T09:57:12;32.90;53.90
9951;DHT22;24074;49.254;6.702;2023-07-20T09:59:39;31.80;57.40
9951;DHT22;24074;49.254;6.702;2023-07-20T10:02:18;33.60;55.90
9951;DHT22;24074;49.254;6.702;2023-07-20T10:04:45;33.80;52.90
9951;DHT22;24074;49.254;6.702;2023-07-20T10:07:12;33.40;55.50
9951;DHT22;24074;49.254;6.702;2023-07-20T10:09:39;32.70;55.00
9951;DHT22;24074;49.254;6.702;2023-07-20T10:12:07;30.70;57.20
9951;DHT22;24074;49.254;6.702;2023-07-20T10:14:35;29.20;60.30
9951;DHT22;24074;49.254;6.702;2023-07-20T10:17:05;28.60;63.20
9951;DHT22;24074;49.254;6.702;2023-07-20T10:19:51;28.80;64.40
9951;DHT22;24074;49.254;6.702;2023-07-20T10:22:25;29.90;62.00
9951;DHT22;24074;49.254;6.702;2023-07-20T10:24:52;31.60;60.30
9951;DHT22;24074;49.254;6.702;2023-07-20T10:27:20;33.00;56.60
9951;DHT22;24074;49.254;6.702;2023-07-20T10:29:47;34.30;54.70
9951;DHT22;24074;49.254;6.702;2023-07-20T10:32:12;34.10;55.00
9951;DHT22;24074;49.254;6.702;2023-07-20T10:34:39;34.40;53.80
9951;DHT22;24074;49.254;6.702;2023-07-20T10:37:05;34.80;52.20
9951;DHT22;24074;49.254;6.702;2023-07-20T10:39:31;35.10;50.50
9951;DHT22;24074;49.254;6.702;2023-07-20T10:42:06;35.90;50.30
9951;DHT22;24074;49.254;6.702;2023-07-20T10:44:33;34.30;51.10
9951;DHT22;24074;49.254;6.702;2023-07-20T10:47:03;32.80;54.00
9951;DHT22;24074;49.254;6.702;2023-07-20T10:49:33;33.10;55.30
9951;DHT22;24074;49.254;6.702;2023-07-20T10:52:00;33.90;53.50
9951;DHT22;24074;49.254;6.702;2023-07-20T10:56:56;34.60;52.30
9951;DHT22;24074;49.254;6.702;2023-07-20T11:01:59;35.20;50.00
9951;DHT22;24074;49.254;6.702;2023-07-20T11:04:40;34.70;51.00
9951;DHT22;24074;49.254;6.702;2023-07-20T11:07:06;34.20;49.60
9951;DHT22;24074;49.254;6.702;2023-07-20T11:09:36;31.30;53.20
9951;DHT22;24074;49.254;6.702;2023-07-20T11:12:15;29.80;55.70
9951;DHT22;24074;49.254;6.702;2023-07-20T11:14:42;28.90;58.90
9951;DHT22;24074;49.254;6.702;2023-07-20T11:17:15;31.20;57.20
9951;DHT22;24074;49.254;6.702;2023-07-20T11:19:41;32.90;54.80
9951;DHT22;24074;49.254;6.702;2023-07-20T11:22:07;34.40;52.50
9951;DHT22;24074;49.254;6.702;2023-07-20T11:24:33;35.10;50.10
9951;DHT22;24074;49.254;6.702;2023-07-20T11:26:59;34.20;50.90
9951;DHT22;24074;49.254;6.702;2023-07-20T11:29:25;32.50;51.40
9951;DHT22;24074;49.254;6.702;2023-07-20T11:31:52;31.40;53.10
9951;DHT22;24074;49.254;6.702;2023-07-20T11:34:19;30.70;53.10
9951;DHT22;24074;49.254;6.702;2023-07-20T11:36:47;29.50;54.70
9951;DHT22;24074;49.254;6.702;2023-07-20T11:39:14;28.60;54.80
9951;DHT22;24074;49.254;6.702;2023-07-20T11:41:46;28.40;55.20
9951;DHT22;24074;49.254;6.702;2023-07-20T11:44:12;28.60;54.50
9951;DHT22;24074;49.254;6.702;2023-07-20T11:46:44;28.90;54.50
9951;DHT22;24074;49.254;6.702;2023-07-20T11:49:11;29.10;53.60
9951;DHT22;24074;49.254;6.702;2023-07-20T11:51:38;28.80;54.60
9951;DHT22;24074;49.254;6.702;2023-07-20T11:54:07;28.90;56.00
9951;DHT22;24074;49.254;6.702;2023-07-20T11:56:33;28.60;56.00
9951;DHT22;24074;49.254;6.702;2023-07-20T11:58:59;28.60;57.10
9951;DHT22;24074;49.254;6.702;2023-07-20T12:01:27;29.10;57.00
9951;DHT22;24074;49.254;6.702;2023-07-20T12:04:03;28.50;57.10
9951;DHT22;24074;49.254;6.702;2023-07-20T12:06:29;28.50;56.90
9951;DHT22;24074;49.254;6.702;2023-07-20T12:08:57;27.90;57.10
9951;DHT22;24074;49.254;6.702;2023-07-20T12:13:58;27.80;55.80
9951;DHT22;24074;49.254;6.702;2023-07-20T12:16:27;27.80;55.90
9951;DHT22;24074;49.254;6.702;2023-07-20T12:19:00;27.90;56.00
9951;DHT22;24074;49.254;6.702;2023-07-20T12:21:26;28.20;56.40
9951;DHT22;24074;49.254;6.702;2023-07-20T12:23:51;28.10;56.40
9951;DHT22;24074;49.254;6.702;2023-07-20T12:26:17;28.40;56.70
9951;DHT22;24074;49.254;6.702;2023-07-20T12:28:42;28.80;55.10
9951;DHT22;24074;49.254;6.702;2023-07-20T12:31:09;28.20;55.70
9951;DHT22;24074;49.254;6.702;2023-07-20T12:33:37;28.40;55.10
9951;DHT22;24074;49.254;6.702;2023-07-20T12:36:04;28.60;54.40
9951;DHT22;24074;49.254;6.702;2023-07-20T12:38:30;28.30;54.40
9951;DHT22;24074;49.254;6.702;2023-07-20T12:41:01;28.50;54.20
9951;DHT22;24074;49.254;6.702;2023-07-20T12:43:27;28.50;54.20
9951;DHT22;24074;49.254;6.702;2023-07-20T12:45:52;29.00;53.80
9951;DHT22;24074;49.254;6.702;2023-07-20T12:48:18;28.60;54.00
9951;DHT22;24074;49.254;6.702;2023-07-20T12:50:44;28.30;54.00
9951;DHT22;24074;49.254;6.702;2023-07-20T12:53:10;28.00;55.00
9951;DHT22;24074;49.254;6.702;2023-07-20T12:55:36;27.30;55.10
9951;DHT22;24074;49.254;6.702;2023-07-20T12:58:02;27.60;56.00
9951;DHT22;24074;49.254;6.702;2023-07-20T13:00:28;28.20;55.40
9951;DHT22;24074;49.254;6.702;2023-07-20T13:02:53;28.50;55.30
9951;DHT22;24074;49.254;6.702;2023-07-20T13:05:19;27.90;55.10
9951;DHT22;24074;49.254;6.702;2023-07-20T13:07:44;28.40;55.20
9951;DHT22;24074;49.254;6.702;2023-07-20T13:10:11;28.70;53.50
9951;DHT22;24074;49.254;6.702;2023-07-20T13:12:38;28.40;54.50
9951;DHT22;24074;49.254;6.702;2023-07-20T13:15:05;28.20;55.20
9951;DHT22;24074;49.254;6.702;2023-07-20T13:17:32;27.70;55.70
9951;DHT22;24074;49.254;6.702;2023-07-20T13:19:58;27.60;55.90
9951;DHT22;24074;49.254;6.702;2023-07-20T13:22:24;27.90;55.90
9951;DHT22;24074;49.254;6.702;2023-07-20T13:24:50;28.30;55.60
9951;DHT22;24074;49.254;6.702;2023-07-20T13:27:19;28.30;54.00
9951;DHT22;24074;49.254;6.702;2023-07-20T13:29:45;28.10;54.90
9951;DHT22;24074;49.254;6.702;2023-07-20T13:32:13;27.80;54.60
9951;DHT22;24074;49.254;6.702;2023-07-20T13:34:40;27.70;54.80
9951;DHT22;24074;49.254;6.702;2023-07-20T13:37:05;27.90;54.90
9951;DHT22;24074;49.254;6.702;2023-07-20T13:39:31;27.90;54.60
9951;DHT22;24074;49.254;6.702;2023-07-20T13:41:57;28.20;54.60
9951;DHT22;24074;49.254;6.702;2023-07-20T13:44:22;28.20;54.50
9951;DHT22;24074;49.254;6.702;2023-07-20T13:46:49;28.20;55.30
9951;DHT22;24074;49.254;6.702;2023-07-20T13:49:15;28.10;55.70
9951;DHT22;24074;49.254;6.702;2023-07-20T13:51:43;27.70;55.90
9951;DHT22;24074;49.254;6.702;2023-07-20T13:54:09;27.80;56.70
9951;DHT22;24074;49.254;6.702;2023-07-20T13:56:35;28.10;56.40
9951;DHT22;24074;49.254;6.702;2023-07-20T13:59:01;28.60;54.60
9951;DHT22;24074;49.254;6.702;2023-07-20T14:01:26;29.20;53.80
9951;DHT22;24074;49.254;6.702;2023-07-20T14:03:54;29.10;52.80
9951;DHT22;24074;49.254;6.702;2023-07-20T14:06:19;28.80;53.00
9951;DHT22;24074;49.254;6.702;2023-07-20T14:08:45;28.60;53.90
9951;DHT22;24074;49.254;6.702;2023-07-20T14:11:15;28.70;53.50
9951;DHT22;24074;49.254;6.702;2023-07-20T14:13:41;27.60;54.10
9951;DHT22;24074;49.254;6.702;2023-07-20T14:16:07;26.70;56.90
9951;DHT22;24074;49.254;6.702;2023-07-20T14:18:33;26.80;56.80
9951;DHT22;24074;49.254;6.702;2023-07-20T14:20:59;26.80;55.80
9951;DHT22;24074;49.254;6.702;2023-07-20T14:23:25;27.20;55.60
9951;DHT22;24074;49.254;6.702;2023-07-20T14:25:50;27.60;54.60
9951;DHT22;24074;49.254;6.702;2023-07-20T14:28:16;28.00;54.70
9951;DHT22;24074;49.254;6.702;2023-07-20T14:30:42;28.00;53.40
9951;DHT22;24074;49.254;6.702;2023-07-20T14:33:07;27.80;54.40
9951;DHT22;24074;49.254;6.702;2023-07-20T14:35:33;27.90;54.70
9951;DHT22;24074;49.254;6.702;2023-07-20T14:37:59;28.60;55.00
9951;DHT22;24074;49.254;6.702;2023-07-20T14:40:25;28.60;52.90
9951;DHT22;24074;49.254;6.702;2023-07-20T14:42:50;28.50;53.00
9951;DHT22;24074;49.254;6.702;2023-07-20T14:45:17;28.60;52.60
9951;DHT22;24074;49.254;6.702;2023-07-20T14:47:43;28.30;53.50
9951;DHT22;24074;49.254;6.702;2023-07-20T14:50:09;28.80;53.40
9951;DHT22;24074;49.254;6.702;2023-07-20T14:52:35;29.00;53.10
9951;DHT22;24074;49.254;6.702;2023-07-20T14:55:01;29.00;52.10
9951;DHT22;24074;49.254;6.702;2023-07-20T14:57:29;29.10;52.90
9951;DHT22;24074;49.254;6.702;2023-07-20T14:59:55;29.20;52.70
9951;DHT22;24074;49.254;6.702;2023-07-20T15:02:20;28.90;52.10
9951;DHT22;24074;49.254;6.702;2023-07-20T15:04:50;29.10;52.10
9951;DHT22;24074;49.254;6.702;2023-07-20T15:07:20;29.10;52.00
9951;DHT22;24074;49.254;6.702;2023-07-20T15:09:50;28.90;52.00
9951;DHT22;24074;49.254;6.702;2023-07-20T15:12:15;28.90;52.30
9951;DHT22;24074;49.254;6.702;2023-07-20T15:14:42;28.50;52.60
9951;DHT22;24074;49.254;6.702;2023-07-20T15:17:09;28.30;53.50
9951;DHT22;24074;49.254;6.702;2023-07-20T15:19:35;28.30;53.20
9951;DHT22;24074;49.254;6.702;2023-07-20T15:22:04;28.70;52.70
9951;DHT22;24074;49.254;6.702;2023-07-20T15:24:30;29.20;52.10
9951;DHT22;24074;49.254;6.702;2023-07-20T15:26:55;29.40;51.70
9951;DHT22;24074;49.254;6.702;2023-07-20T15:29:23;29.30;52.10
9951;DHT22;24074;49.254;6.702;2023-07-20T15:31:48;28.90;52.20
9951;DHT22;24074;49.254;6.702;2023-07-20T15:34:17;28.50;51.80
9951;DHT22;24074;49.254;6.702;2023-07-20T15:36:43;28.40;52.00
9951;DHT22;24074;49.254;6.702;2023-07-20T15:39:08;28.70;52.30
9951;DHT22;24074;49.254;6.702;2023-07-20T15:41:34;28.50;53.10
9951;DHT22;24074;49.254;6.702;2023-07-20T15:44:00;28.70;52.80
9951;DHT22;24074;49.254;6.702;2023-07-20T15:46:45;28.60;52.80
9951;DHT22;24074;49.254;6.702;2023-07-20T15:49:11;28.90;52.20
9951;DHT22;24074;49.254;6.702;2023-07-20T15:51:37;29.10;52.10
9951;DHT22;24074;49.254;6.702;2023-07-20T15:54:04;28.60;51.70